createdAt,value
2023-03-03T00:01:07.400Z,12.47
2023-03-03T00:03:37.821Z,17.33
2023-03-03T00:06:06.845Z,17.53
2023-03-03T00:08:36.190Z,17.77
2023-03-03T00:11:07.862Z,15.33
2023-03-03T00:13:41.289Z,18.00
2023-03-03T00:16:15.798Z,16.80
2023-03-03T00:18:46.754Z,16.60
2023-03-03T00:21:25.647Z,17.20
2023-03-03T00:23:55.141Z,15.20
2023-03-03T00:26:24.512Z,16.90
2023-03-03T00:28:54.466Z,15.73
2023-03-03T00:31:23.967Z,15.90
2023-03-03T00:33:54.814Z,16.23
2023-03-03T00:36:37.716Z,16.73
2023-03-03T00:39:19.304Z,15.87
2023-03-03T00:41:47.877Z,15.93
2023-03-03T00:44:34.911Z,17.63
2023-03-03T00:47:04.980Z,16.77
2023-03-03T00:49:34.911Z,15.90
2023-03-03T00:52:03.836Z,16.50
2023-03-03T00:54:32.051Z,17.80
2023-03-03T00:57:00.295Z,16.90
2023-03-03T00:59:28.803Z,16.10
2023-03-03T01:01:57.110Z,17.00
2023-03-03T01:04:25.628Z,15.80
2023-03-03T01:06:55.311Z,16.60
2023-03-03T01:09:23.685Z,17.30
2023-03-03T01:11:52.475Z,14.40
2023-03-03T01:14:21.099Z,15.97
2023-03-03T01:16:50.148Z,11.87
2023-03-03T01:19:18.434Z,18.47
2023-03-03T01:21:46.699Z,17.93
2023-03-03T01:24:16.361Z,17.30
2023-03-03T01:26:44.870Z,15.40
2023-03-03T01:29:13.354Z,17.20
2023-03-03T01:31:41.639Z,16.97
2023-03-03T01:34:09.974Z,13.87
2023-03-03T01:36:38.239Z,13.57
2023-03-03T01:39:06.746Z,12.00
2023-03-03T01:41:36.359Z,11.50
2023-03-03T01:44:04.870Z,22.13
2023-03-03T01:46:42.949Z,11.93
2023-03-03T01:49:14.213Z,13.57
2023-03-03T01:51:45.463Z,12.70
2023-03-03T01:54:16.385Z,13.30
2023-03-03T01:56:46.182Z,10.70
2023-03-03T01:59:16.711Z,12.50
2023-03-03T02:01:45.046Z,13.37
2023-03-03T02:04:13.453Z,12.63
2023-03-03T02:06:43.368Z,13.03
2023-03-03T02:09:14.477Z,19.80
2023-03-03T02:11:44.454Z,13.53
2023-03-03T02:14:14.327Z,13.90
2023-03-03T02:16:42.827Z,10.47
2023-03-03T02:19:15.218Z,13.80
2023-03-03T02:21:43.668Z,14.00
2023-03-03T02:24:17.498Z,13.80
2023-03-03T02:26:47.476Z,11.97
2023-03-03T02:29:15.753Z,10.00
2023-03-03T02:31:44.105Z,7.10
2023-03-03T02:34:12.480Z,17.17
2023-03-03T02:36:41.478Z,17.70
2023-03-03T02:39:12.423Z,15.23
2023-03-03T02:41:42.563Z,16.50
2023-03-03T02:44:13.431Z,10.40
2023-03-03T02:46:43.157Z,18.37
2023-03-03T02:49:12.239Z,4.63
2023-03-03T02:51:41.056Z,11.17
2023-03-03T02:54:10.533Z,19.13
2023-03-03T02:56:39.062Z,16.73
2023-03-03T02:59:07.486Z,13.23
2023-03-03T03:01:37.886Z,15.73
2023-03-03T03:04:09.393Z,15.73
2023-03-03T03:06:37.906Z,18.40
2023-03-03T03:09:07.341Z,24.27
2023-03-03T03:11:36.112Z,6.03
2023-03-03T03:14:06.692Z,19.10
2023-03-03T03:16:35.059Z,11.17
2023-03-03T03:19:05.778Z,29.13
2023-03-03T03:21:34.146Z,23.37
2023-03-03T03:24:02.522Z,22.67
2023-03-03T03:26:31.001Z,20.97
2023-03-03T03:28:59.287Z,22.03
2023-03-03T03:31:27.877Z,20.83
2023-03-03T03:33:56.352Z,20.90
2023-03-03T03:36:27.285Z,13.30
2023-03-03T03:38:55.822Z,19.80
2023-03-03T03:41:24.140Z,25.00
2023-03-03T03:43:52.429Z,23.40
2023-03-03T03:46:20.734Z,25.00
2023-03-03T03:48:48.972Z,23.97
2023-03-03T03:51:17.335Z,24.50
2023-03-03T03:53:46.946Z,25.00
2023-03-03T03:56:15.177Z,23.47
2023-03-03T03:58:43.829Z,13.60
2023-03-03T04:01:12.117Z,19.23
2023-03-03T04:03:40.363Z,17.00
2023-03-03T04:06:08.769Z,22.77
2023-03-03T04:08:37.039Z,23.90
2023-03-03T04:11:06.855Z,13.93
2023-03-03T04:13:35.288Z,32.13
2023-03-03T04:16:03.910Z,31.80
2023-03-03T04:18:32.377Z,31.03
2023-03-03T04:21:00.677Z,28.17
2023-03-03T04:23:28.977Z,21.80
2023-03-03T04:25:57.666Z,25.03
2023-03-03T04:28:27.254Z,12.00
2023-03-03T04:30:55.541Z,27.80
2023-03-03T04:33:23.771Z,17.20
2023-03-03T04:35:52.415Z,20.00
2023-03-03T04:38:20.690Z,23.13
2023-03-03T04:40:49.106Z,19.63
2023-03-03T04:43:19.376Z,12.90
2023-03-03T04:45:49.098Z,22.80
2023-03-03T04:48:17.441Z,26.87
2023-03-03T04:50:45.727Z,28.87
2023-03-03T04:53:14.006Z,30.00
2023-03-03T04:55:42.451Z,30.30
2023-03-03T04:58:10.959Z,23.60
2023-03-03T05:00:39.814Z,28.60
2023-03-03T05:03:09.529Z,25.20
2023-03-03T05:05:37.719Z,32.80
2023-03-03T05:08:06.744Z,27.50
2023-03-03T05:10:35.256Z,24.53
2023-03-03T05:13:03.487Z,24.40
2023-03-03T05:15:32.440Z,29.97
2023-03-03T05:18:00.990Z,28.23
2023-03-03T05:20:31.052Z,22.50
2023-03-03T05:23:01.536Z,29.50
2023-03-03T05:25:29.796Z,17.57
2023-03-03T05:27:58.063Z,18.27
2023-03-03T05:30:26.239Z,28.07
2023-03-03T05:32:54.594Z,28.87
2023-03-03T05:35:23.430Z,26.27
2023-03-03T05:37:53.249Z,31.80
2023-03-03T05:40:21.506Z,34.07
2023-03-03T05:42:49.882Z,28.60
2023-03-03T05:45:20.530Z,32.23
2023-03-03T05:47:49.108Z,35.77
2023-03-03T05:50:17.798Z,30.50
2023-03-03T05:52:46.112Z,26.77
2023-03-03T05:55:15.710Z,33.07
2023-03-03T05:57:43.922Z,30.97
2023-03-03T06:00:12.824Z,26.97
2023-03-03T06:02:41.358Z,14.37
2023-03-03T06:05:11.644Z,32.10
2023-03-03T06:07:39.927Z,25.30
2023-03-03T06:10:08.933Z,26.50
2023-03-03T06:12:39.510Z,14.03
2023-03-03T06:15:08.571Z,24.97
2023-03-03T06:17:36.838Z,23.67
2023-03-03T06:20:10.811Z,12.53
2023-03-03T06:22:39.017Z,10.70
2023-03-03T06:25:07.656Z,25.03
2023-03-03T06:27:35.941Z,11.83
2023-03-03T06:30:06.387Z,13.77
2023-03-03T06:32:34.763Z,23.67
2023-03-03T06:35:03.040Z,22.30
2023-03-03T06:37:31.704Z,28.47
2023-03-03T06:40:00.335Z,28.07
2023-03-03T06:42:28.688Z,28.93
2023-03-03T06:44:56.900Z,31.77
2023-03-03T06:47:26.477Z,23.77
2023-03-03T06:49:54.827Z,17.03
2023-03-03T06:52:48.676Z,35.17
2023-03-03T06:55:20.797Z,29.17
2023-03-03T06:58:15.803Z,34.10
2023-03-03T07:00:44.976Z,24.53
2023-03-03T07:03:17.392Z,21.73
2023-03-03T07:05:45.958Z,17.27
2023-03-03T07:08:15.939Z,27.40
2023-03-03T07:10:44.452Z,20.67
2023-03-03T07:13:20.004Z,29.10
2023-03-03T07:15:48.687Z,30.43
2023-03-03T07:18:36.908Z,31.37
2023-03-03T07:21:09.143Z,30.50
2023-03-03T07:23:42.775Z,11.00
2023-03-03T07:26:13.469Z,31.00
2023-03-03T07:28:43.030Z,33.17
2023-03-03T07:31:31.308Z,23.90
2023-03-03T07:34:02.027Z,24.83
2023-03-03T07:36:31.378Z,18.10
2023-03-03T07:39:04.526Z,20.83
2023-03-03T07:41:36.643Z,30.63
2023-03-03T07:44:08.138Z,16.10
2023-03-03T07:46:38.901Z,30.60
2023-03-03T07:49:14.197Z,20.77
2023-03-03T07:51:42.916Z,19.67
2023-03-03T07:54:25.846Z,28.97
2023-03-03T07:56:54.109Z,23.00
2023-03-03T07:59:23.626Z,21.37
2023-03-03T08:01:53.442Z,30.97
2023-03-03T08:04:26.510Z,10.57
2023-03-03T08:06:55.806Z,20.90
2023-03-03T08:09:32.804Z,11.57
2023-03-03T08:12:03.891Z,15.20
2023-03-03T08:14:35.781Z,28.13
2023-03-03T08:17:09.292Z,28.63
2023-03-03T08:19:39.223Z,30.67
2023-03-03T08:22:13.827Z,24.40
2023-03-03T08:24:46.152Z,21.97
2023-03-03T08:27:14.457Z,27.93
2023-03-03T08:29:42.708Z,31.30
2023-03-03T08:32:11.067Z,21.37
2023-03-03T08:34:40.904Z,24.10
2023-03-03T08:37:09.350Z,4.10
2023-03-03T08:39:37.577Z,12.87
2023-03-03T08:42:06.165Z,27.70
2023-03-03T08:44:34.338Z,27.37
2023-03-03T08:47:06.656Z,19.30
2023-03-03T08:49:35.109Z,23.20
2023-03-03T08:52:04.885Z,21.50
2023-03-03T08:54:33.120Z,22.70
2023-03-03T08:57:01.334Z,17.23
2023-03-03T08:59:29.947Z,16.53
2023-03-03T09:02:00.189Z,29.10
2023-03-03T09:04:28.518Z,19.37
2023-03-03T09:06:56.731Z,21.53
2023-03-03T09:09:27.063Z,28.73
2023-03-03T09:11:59.536Z,29.30
2023-03-03T09:14:30.176Z,20.10
2023-03-03T09:16:58.706Z,27.60
2023-03-03T09:19:29.535Z,18.57
2023-03-03T09:21:58.426Z,26.20
2023-03-03T09:24:29.258Z,12.37
2023-03-03T09:26:58.866Z,23.70
2023-03-03T09:29:29.015Z,28.83
2023-03-03T09:31:59.034Z,6.10
2023-03-03T09:34:29.001Z,16.27
2023-03-03T09:37:00.281Z,14.40
2023-03-03T09:39:31.948Z,27.33
2023-03-03T09:42:19.265Z,21.90
2023-03-03T09:45:06.903Z,17.60
2023-03-03T09:47:45.952Z,25.47
2023-03-03T09:50:22.721Z,29.10
2023-03-03T09:52:54.430Z,23.57
2023-03-03T09:55:30.546Z,29.27
2023-03-03T09:58:11.207Z,22.10
2023-03-03T10:00:47.911Z,16.90
2023-03-03T10:03:34.575Z,25.50
2023-03-03T10:06:05.042Z,20.47
2023-03-03T10:08:39.604Z,27.90
2023-03-03T10:11:19.852Z,26.07
2023-03-03T10:14:00.972Z,30.13
2023-03-03T10:16:44.223Z,3.30
2023-03-03T10:19:30.350Z,33.50
2023-03-03T10:22:01.668Z,28.60
2023-03-03T10:24:31.699Z,33.27
2023-03-03T10:27:13.920Z,34.17
2023-03-03T10:29:48.451Z,32.23
2023-03-03T10:32:35.069Z,24.97
2023-03-03T10:35:06.778Z,25.27
2023-03-03T10:37:37.663Z,28.20
2023-03-03T10:40:10.978Z,13.97
2023-03-03T10:42:47.653Z,28.07
2023-03-03T10:45:48.072Z,19.70
2023-03-03T10:48:25.006Z,12.00
2023-03-03T10:50:56.037Z,8.77
2023-03-03T10:53:28.424Z,18.67
2023-03-03T10:56:04.587Z,16.37
2023-03-03T10:58:43.996Z,27.23
2023-03-03T11:01:17.779Z,14.27
2023-03-03T11:04:00.222Z,15.63
2023-03-03T11:06:32.777Z,11.97
2023-03-03T11:09:05.229Z,27.20
2023-03-03T11:11:38.199Z,30.07
2023-03-03T11:14:14.778Z,14.87
2023-03-03T11:16:47.356Z,31.60
2023-03-03T11:19:25.518Z,16.50
2023-03-03T11:21:59.854Z,18.70
2023-03-03T11:24:35.330Z,32.57
2023-03-03T11:27:14.362Z,29.40
2023-03-03T11:29:51.922Z,28.77
2023-03-03T11:32:24.319Z,26.40
2023-03-03T11:34:57.991Z,33.63
2023-03-03T11:37:30.157Z,32.53
2023-03-03T11:40:00.069Z,33.40
2023-03-03T11:42:34.987Z,22.67
2023-03-03T11:45:06.313Z,33.47
2023-03-03T11:47:36.991Z,32.53
2023-03-03T11:50:06.313Z,29.50
2023-03-03T11:52:39.675Z,20.27
2023-03-03T11:55:10.633Z,41.93
2023-03-03T11:57:41.449Z,40.30
2023-03-03T12:00:24.999Z,35.70
2023-03-03T12:03:00.298Z,23.53
2023-03-03T12:05:33.536Z,35.03
2023-03-03T12:08:07.067Z,32.47
2023-03-03T12:10:38.648Z,42.25
2023-03-03T12:13:08.620Z,43.10
2023-03-03T12:15:43.214Z,48.00
2023-03-03T12:18:17.819Z,42.33
2023-03-03T12:20:49.583Z,37.83
2023-03-03T12:23:23.654Z,44.90
2023-03-03T12:25:59.366Z,36.57
2023-03-03T12:28:29.424Z,37.23
2023-03-03T12:31:18.696Z,42.10
2023-03-03T12:33:54.069Z,32.03
2023-03-03T12:36:27.305Z,18.97
2023-03-03T12:38:58.189Z,32.27
2023-03-03T12:41:31.884Z,33.00
2023-03-03T12:44:01.520Z,45.27
2023-03-03T12:46:36.443Z,44.40
2023-03-03T12:49:06.694Z,43.50
2023-03-03T12:51:40.660Z,17.57
2023-03-03T12:54:30.088Z,35.77
2023-03-03T12:57:01.396Z,18.90
2023-03-03T12:59:34.696Z,15.97
2023-03-03T13:02:10.399Z,32.67
2023-03-03T13:04:43.712Z,38.90
2023-03-03T13:07:14.302Z,32.93
2023-03-03T13:09:53.258Z,35.53
2023-03-03T13:12:30.291Z,17.43
2023-03-03T13:15:02.414Z,31.50
2023-03-03T13:17:33.475Z,24.13
2023-03-03T13:20:04.436Z,38.20
2023-03-03T13:22:35.606Z,24.30
2023-03-03T13:25:08.117Z,34.53
2023-03-03T13:27:40.987Z,34.73
2023-03-03T13:30:16.997Z,36.30
2023-03-03T13:32:48.293Z,31.37
2023-03-03T13:35:25.737Z,28.60
2023-03-03T13:37:55.503Z,36.50
2023-03-03T13:40:25.579Z,29.37
2023-03-03T13:42:57.160Z,35.87
2023-03-03T13:45:27.340Z,34.60
2023-03-03T13:48:03.854Z,40.43
2023-03-03T13:50:38.414Z,31.70
2023-03-03T13:53:21.865Z,28.97
2023-03-03T13:55:54.443Z,37.30
2023-03-03T13:58:27.131Z,34.23
2023-03-03T14:00:59.310Z,39.70
2023-03-03T14:03:35.760Z,26.10
2023-03-03T14:06:11.532Z,29.63
2023-03-03T14:08:45.664Z,26.37
2023-03-03T14:11:18.171Z,40.03
2023-03-03T14:13:52.543Z,30.73
2023-03-03T14:16:24.353Z,27.43
2023-03-03T14:18:57.352Z,32.70
2023-03-03T14:21:29.873Z,34.33
2023-03-03T14:24:09.315Z,17.47
2023-03-03T14:26:47.676Z,45.87
2023-03-03T14:29:21.002Z,42.50
2023-03-03T14:31:49.279Z,28.37
2023-03-03T14:34:32.641Z,30.23
2023-03-03T14:37:10.174Z,16.60
2023-03-03T14:39:39.101Z,24.60
2023-03-03T14:42:14.304Z,18.10
2023-03-03T14:44:52.568Z,35.73
2023-03-03T14:47:24.270Z,38.80
2023-03-03T14:49:54.596Z,39.70
2023-03-03T14:52:25.595Z,36.60
2023-03-03T14:54:54.993Z,25.50
2023-03-03T14:57:30.417Z,11.10
2023-03-03T15:00:00.367Z,15.67
2023-03-03T15:02:37.321Z,25.20
2023-03-03T15:05:18.999Z,38.53
2023-03-03T15:07:49.516Z,32.10
2023-03-03T15:10:28.836Z,31.30
2023-03-03T15:12:57.426Z,42.47
2023-03-03T15:15:29.629Z,41.77
2023-03-03T15:18:13.572Z,21.97
2023-03-03T15:20:43.824Z,40.63
2023-03-03T15:23:32.913Z,38.57
2023-03-03T15:26:04.328Z,37.27
2023-03-03T15:28:41.341Z,35.40
2023-03-03T15:31:14.314Z,32.47
2023-03-03T15:33:47.485Z,32.80
2023-03-03T15:36:20.245Z,21.57
2023-03-03T15:38:54.928Z,24.13
2023-03-03T15:41:28.613Z,31.03
2023-03-03T15:44:06.688Z,34.80
2023-03-03T15:46:41.540Z,35.00
2023-03-03T15:49:15.939Z,34.40
2023-03-03T15:52:02.425Z,30.67
2023-03-03T15:54:35.795Z,27.17
2023-03-03T15:57:08.381Z,29.93
2023-03-03T16:00:03.885Z,26.17
2023-03-03T16:02:41.056Z,35.73
2023-03-03T16:05:15.410Z,32.27
2023-03-03T16:07:48.697Z,14.90
2023-03-03T16:10:31.609Z,24.00
2023-03-03T16:13:20.020Z,30.97
2023-03-03T16:15:53.889Z,27.50
2023-03-03T16:18:29.426Z,21.73
2023-03-03T16:21:04.906Z,23.03
2023-03-03T16:23:40.044Z,27.10
2023-03-03T16:26:29.136Z,31.27
2023-03-03T16:29:04.412Z,28.03
2023-03-03T16:31:36.325Z,26.70
2023-03-03T16:34:11.949Z,30.17
2023-03-03T16:36:45.614Z,27.43
2023-03-03T16:39:17.126Z,23.37
2023-03-03T16:41:49.200Z,30.93
2023-03-03T16:44:35.177Z,23.10
2023-03-03T16:47:09.818Z,24.90
2023-03-03T16:49:41.122Z,27.17
2023-03-03T16:52:11.725Z,20.73
2023-03-03T16:54:41.310Z,27.93
2023-03-03T16:57:12.835Z,23.23
2023-03-03T16:59:48.078Z,24.67
2023-03-03T17:02:23.653Z,26.33
2023-03-03T17:04:59.018Z,21.63
2023-03-03T17:07:36.804Z,24.33
2023-03-03T17:10:18.087Z,22.20
2023-03-03T17:13:00.679Z,21.17
2023-03-03T17:15:39.262Z,20.60
2023-03-03T17:18:13.292Z,22.97
2023-03-03T17:20:43.571Z,22.33
2023-03-03T17:23:19.290Z,21.57
2023-03-03T17:25:51.941Z,19.90
2023-03-03T17:28:27.997Z,21.23
2023-03-03T17:31:02.175Z,24.40
2023-03-03T17:33:38.682Z,20.13
2023-03-03T17:36:18.380Z,23.80
2023-03-03T17:38:51.083Z,22.63
2023-03-03T17:41:23.223Z,23.70
2023-03-03T17:43:57.585Z,24.60
2023-03-03T17:46:32.196Z,23.53
2023-03-03T17:49:06.730Z,25.80
2023-03-03T17:51:42.280Z,24.23
2023-03-03T17:54:18.857Z,25.60
2023-03-03T17:56:53.335Z,25.83
2023-03-03T17:59:27.304Z,24.10
2023-03-03T18:02:11.034Z,20.67
2023-03-03T18:05:01.181Z,28.43
2023-03-03T18:07:40.270Z,26.27
2023-03-03T18:10:29.377Z,28.80
2023-03-03T18:13:02.918Z,29.23
2023-03-03T18:15:40.846Z,31.67
2023-03-03T18:18:22.902Z,29.97
2023-03-03T18:21:01.812Z,28.80
2023-03-03T18:23:41.729Z,27.63
2023-03-03T18:26:27.657Z,27.03
2023-03-03T18:29:07.076Z,30.47
2023-03-03T18:31:46.405Z,27.77
2023-03-03T18:34:28.562Z,27.47
2023-03-03T18:36:57.662Z,29.73
2023-03-03T18:39:43.213Z,32.40
2023-03-03T18:42:12.904Z,32.97
2023-03-03T18:44:41.142Z,35.03
2023-03-03T18:47:10.206Z,32.80
2023-03-03T18:49:56.373Z,33.60
2023-03-03T18:52:29.021Z,32.37
2023-03-03T18:55:06.635Z,31.83
2023-03-03T18:57:35.131Z,29.80
2023-03-03T19:00:11.757Z,33.67
2023-03-03T19:02:46.456Z,32.27
2023-03-03T19:05:20.201Z,32.40
2023-03-03T19:07:52.783Z,34.43
2023-03-03T19:10:54.313Z,30.47
2023-03-03T19:13:52.795Z,31.20
2023-03-03T19:16:39.854Z,30.77
2023-03-03T19:19:16.646Z,31.17
2023-03-03T19:21:48.392Z,31.47
2023-03-03T19:24:37.454Z,32.40
2023-03-03T19:27:17.730Z,37.80
2023-03-03T19:30:04.974Z,34.57
2023-03-03T19:32:42.361Z,34.83
2023-03-03T19:35:17.896Z,32.67
2023-03-03T19:37:50.956Z,33.67
2023-03-03T19:40:22.767Z,38.30
2023-03-03T19:42:58.638Z,36.30
2023-03-03T19:45:47.551Z,35.67
2023-03-03T19:48:41.512Z,36.00
2023-03-03T19:51:24.484Z,36.43
2023-03-03T19:53:55.492Z,37.53
2023-03-03T19:56:29.125Z,38.33
2023-03-03T19:59:01.969Z,39.10
2023-03-03T20:01:32.876Z,37.63
2023-03-03T20:04:25.635Z,36.97
2023-03-03T20:06:57.599Z,36.13
2023-03-03T20:09:31.606Z,36.80
2023-03-03T20:12:09.610Z,35.43
2023-03-03T20:14:44.263Z,33.83
2023-03-03T20:17:19.475Z,34.90
2023-03-03T20:19:54.629Z,38.90
2023-03-03T20:22:31.591Z,36.20
2023-03-03T20:25:05.088Z,32.70
2023-03-03T20:27:36.489Z,33.80
2023-03-03T20:30:09.106Z,37.60
2023-03-03T20:32:44.204Z,33.20
2023-03-03T20:35:21.088Z,34.60
2023-03-03T20:37:53.159Z,33.77
2023-03-03T20:40:27.654Z,32.23
2023-03-03T20:43:00.096Z,32.40
2023-03-03T20:45:39.728Z,34.73
2023-03-03T20:48:34.729Z,33.87
2023-03-03T20:51:06.900Z,34.80
2023-03-03T20:53:45.177Z,34.33
2023-03-03T20:56:16.495Z,32.93
2023-03-03T20:58:48.173Z,35.83
2023-03-03T21:01:18.243Z,36.67
2023-03-03T21:03:48.597Z,36.87
2023-03-03T21:06:38.806Z,36.73
2023-03-03T21:09:36.757Z,37.50
2023-03-03T21:12:11.549Z,36.33
2023-03-03T21:14:40.558Z,37.80
2023-03-03T21:17:25.964Z,36.90
2023-03-03T21:19:54.255Z,34.20
2023-03-03T21:22:29.785Z,35.73
2023-03-03T21:24:58.952Z,37.77
2023-03-03T21:27:31.358Z,38.40
2023-03-03T21:30:12.943Z,37.50
2023-03-03T21:32:42.945Z,36.37
2023-03-03T21:35:12.929Z,34.60
2023-03-03T21:37:45.477Z,36.83
2023-03-03T21:40:14.627Z,37.63
2023-03-03T21:42:45.324Z,32.90
2023-03-03T21:45:15.346Z,34.67
2023-03-03T21:47:43.588Z,35.23
2023-03-03T21:50:12.593Z,31.87
2023-03-03T21:52:41.306Z,34.90
2023-03-03T21:55:10.330Z,35.10
2023-03-03T21:57:38.602Z,35.33
2023-03-03T22:00:13.013Z,36.87
2023-03-03T22:02:41.293Z,32.97
2023-03-03T22:05:10.105Z,34.93
2023-03-03T22:07:38.363Z,33.43
2023-03-03T22:10:07.705Z,34.00
2023-03-03T22:12:35.969Z,33.13
2023-03-03T22:15:04.707Z,31.63
2023-03-03T22:17:34.480Z,28.60
2023-03-03T22:20:03.079Z,32.07
2023-03-03T22:22:31.326Z,32.97
2023-03-03T22:24:59.598Z,30.23
2023-03-03T22:27:28.087Z,36.37
2023-03-03T22:29:56.561Z,34.50
2023-03-03T22:32:24.851Z,33.67
2023-03-03T22:34:54.631Z,32.50
2023-03-03T22:37:22.897Z,33.67
2023-03-03T22:39:51.095Z,35.60
2023-03-03T22:42:20.625Z,33.90
2023-03-03T22:44:49.150Z,32.93
2023-03-03T22:47:18.379Z,31.20
2023-03-03T22:49:46.673Z,30.53
2023-03-03T22:52:16.373Z,32.03
2023-03-03T22:54:44.770Z,32.70
2023-03-03T22:57:13.056Z,33.93
2023-03-03T22:59:41.482Z,32.50
2023-03-03T23:02:10.077Z,34.37
2023-03-03T23:04:38.330Z,32.37
2023-03-03T23:07:06.909Z,27.03
2023-03-03T23:09:36.507Z,30.63
2023-03-03T23:12:04.810Z,32.57
2023-03-03T23:14:32.994Z,32.67
2023-03-03T23:17:01.278Z,31.60
2023-03-03T23:19:29.495Z,31.27
2023-03-03T23:21:57.729Z,33.03
2023-03-03T23:24:25.942Z,30.97
2023-03-03T23:26:57.929Z,32.23
2023-03-03T23:29:26.158Z,30.30
2023-03-03T23:31:55.702Z,28.80
2023-03-03T23:34:24.990Z,31.77
2023-03-03T23:36:53.323Z,30.33
2023-03-03T23:39:21.579Z,32.10
2023-03-03T23:41:50.124Z,28.50
2023-03-03T23:44:19.760Z,28.57
2023-03-03T23:46:48.067Z,30.13
2023-03-03T23:49:16.365Z,26.53
2023-03-03T23:51:44.577Z,28.47
2023-03-03T23:54:12.866Z,27.73
2023-03-03T23:56:41.263Z,32.20
2023-03-03T23:59:09.695Z,29.57
